Latest Weather Observations for Bourke

IDN60801

Issued at 12:03 pm EST Wednesday 2 September 2015 (issued every 30 minutes, with the page automatically refreshed every 10 minutes)

About weather observations | Map of weather stations | Latest weather observations for NSW | Other Formats
Station Details ID: 048245 Name: BOURKE AIRPORT AWS Lat: -30.04 Lon: 145.95 Height: 107.3 m
Data from the previous 72 hours. | See also: Recent months at Bourke
Date/Time
EST
Temp
°C
App
Temp
°C
Dew
Point
Rel
Hum
%
Delta-T
°C
Wind Press
QNH
hPa
Press
MSL
hPa
Rain
since 9 am
mm
Dir
 
Spd
km/h
Gust
km/h
Spd
kts
Gust
kts
02/12:00pm 20.4 15.8 3.6 33 8.0 ENE 17 22 9 12 1011.8 1011.6 0.0
02/11:30am 18.7 15.0 4.5 39 6.8 NNE 13 15 7 8 1013.1 1012.9 0.0
02/11:00am 18.5 15.4 3.6 37 7.0 NE 9 13 5 7 1013.5 1013.3 0.0
02/10:30am 19.2 13.7 1.7 31 8.0 NNE 20 26 11 14 1013.5 1013.3 0.0
02/10:00am 19.3 14.1 2.6 33 7.8 NE 19 24 10 13 1013.4 1013.2 0.0
02/09:30am 17.9 12.2 2.6 36 7.0 NE 22 28 12 15 1013.6 1013.4 0.0
02/09:00am 16.8 11.7 3.1 40 6.3 NE 19 26 10 14 1013.7 1013.5 0.0
02/08:30am 15.9 10.5 2.7 41 6.0 ENE 20 28 11 15 1013.6 1013.4 0.0
02/08:00am 14.6 9.5 2.8 45 5.3 ENE 19 24 10 13 1013.5 1013.3 0.0
02/07:30am 13.6 9.9 2.5 47 4.9 NE 11 17 6 9 1014.1 1013.9 0.0
02/07:00am 12.8 7.9 1.8 47 4.8 ENE 17 22 9 12 1013.6 1013.4 0.0
02/06:30am 13.0 8.5 2.0 47 4.8 NE 15 20 8 11 1013.9 1013.7 0.0
02/06:00am 12.5 8.0 2.1 49 4.5 ENE 15 17 8 9 1013.6 1013.4 0.0
02/05:30am 13.0 8.9 2.3 48 4.7 ENE 13 15 7 8 1013.8 1013.6 0.0
02/05:00am 13.1 9.0 2.4 48 4.7 ENE 13 15 7 8 1013.8 1013.6 0.0
02/04:30am 13.4 9.3 2.0 46 5.0 ENE 13 17 7 9 1013.6 1013.4 0.0
02/04:00am 14.0 9.5 2.0 44 5.3 ENE 15 20 8 11 1013.5 1013.3 0.0
02/03:30am 14.0 9.5 2.0 44 5.3 ENE 15 19 8 10 1014.0 1013.8 0.0
02/03:00am 14.4 10.2 1.7 42 5.6 ENE 13 19 7 10 1014.4 1014.2 0.0
02/02:30am 14.3 10.1 1.6 42 5.5 ENE 13 17 7 9 1014.4 1014.2 0.0
02/02:00am 14.2 9.9 1.2 41 5.6 ENE 13 17 7 9 1014.8 1014.6 0.0
02/01:30am 14.1 9.8 0.7 40 5.7 ENE 13 17 7 9 1014.6 1014.4 0.0
02/01:00am 14.2 9.0 0.1 38 6.0 ENE 17 20 9 11 1014.4 1014.2 0.0
02/12:30am 13.2 9.3 0.9 43 5.2 ENE 11 13 6 7 1015.1 1014.9 0.0
02/12:00am 13.6 10.0 0.3 40 5.6 ENE 9 11 5 6 1015.5 1015.3 0.0
 
Date/Time
EST
Temp
°C
App
Temp
°C
Dew
Point
Rel
Hum
%
Delta-T
°C
Wind Press
QNH
hPa
Press
MSL
hPa
Rain
since 9 am
mm
Dir
 
Spd
km/h
Gust
km/h
Spd
kts
Gust
kts
01/11:30pm 13.8 10.3 1.1 42 5.5 ENE 9 11 5 6 1015.7 1015.5 0.0
01/11:00pm 13.6 10.1 1.3 43 5.3 E 9 11 5 6 1015.7 1015.5 0.0
01/10:30pm 13.6 10.0 0.9 42 5.4 E 9 13 5 7 1015.6 1015.4 0.0
01/10:00pm 12.3 9.0 2.2 50 4.4 E 9 11 5 6 1015.5 1015.3 0.0
01/09:30pm 11.9 8.4 1.0 47 4.6 ENE 9 9 5 5 1015.7 1015.5 0.0
01/09:00pm 11.5 8.1 1.7 51 4.2 ENE 9 11 5 6 1015.8 1015.6 0.0
01/08:30pm 11.6 8.0 0.7 47 4.5 E 9 11 5 6 1015.4 1015.2 0.0
01/08:00pm 11.6 8.0 0.7 47 4.5 E 9 11 5 6 1015.4 1015.2 0.0
01/07:30pm 13.2 9.5 -0.1 40 5.5 ESE 9 13 5 7 1015.0 1014.8 0.0
01/07:00pm 15.2 11.5 -0.1 35 6.5 SE 9 11 5 6 1014.7 1014.5 0.0
01/06:30pm 15.5 11.8 0.1 35 6.6 SE 9 9 5 5 1014.6 1014.4 0.0
01/06:00pm 15.5 11.8 -0.3 34 6.7 ESE 9 11 5 6 1014.5 1014.3 0.0
01/05:30pm 20.2 17.5 -2.2 22 9.5 ENE 2 7 1 4 1014.6 1014.4 0.0
01/05:00pm 20.6 18.3 -2.5 21 9.8 CALM 0 7 0 4 1014.3 1014.1 0.0
01/04:30pm 21.1 17.5 -2.0 21 10.0 NNE 7 9 4 5 1014.2 1014.0 0.0
01/04:00pm 21.2 17.4 -0.7 23 9.7 NNE 9 13 5 7 1014.6 1014.4 0.0
01/03:30pm 20.8 16.8 -2.3 21 9.9 NNE 9 13 5 7 1014.9 1014.7 0.0
01/03:00pm 20.8 17.3 -1.7 22 9.7 N 7 15 4 8 1015.2 1015.0 0.0
01/02:30pm 21.2 17.2 -2.6 20 10.1 WNW 9 15 5 8 1015.4 1015.2 0.0
01/02:00pm 20.0 16.2 -3.6 20 9.7 NW 7 13 4 7 1015.8 1015.6 0.0
01/01:30pm 20.0 15.9 -3.0 21 9.6 N 9 17 5 9 1016.2 1016.0 0.0
01/01:00pm 19.3 15.4 -1.7 24 8.9 ENE 9 15 5 8 1016.5 1016.3 0.0
01/12:30pm 19.2 16.0 -0.7 26 8.7 W 6 9 3 5 1017.0 1016.8 0.0
01/12:00pm 18.3 14.8 -1.5 26 8.4 ENE 7 15 4 8 1017.5 1017.3 0.0
01/11:30am 18.1 14.4 -0.2 29 8.0 NE 9 17 5 9 1018.0 1017.8 0.0
01/11:00am 17.7 14.1 0.4 31 7.6 N 9 17 5 9 1018.9 1018.8 0.0
01/10:30am 17.9 14.6 2.2 35 7.2 N 9 19 5 10 1019.5 1019.3 0.0
01/10:00am 17.0 13.5 3.7 41 6.2 NNE 11 15 6 8 1019.7 1019.5 0.0
01/09:30am 15.4 11.9 3.5 45 5.5 NNE 11 17 6 9 1019.7 1019.7 0.0
01/09:00am 14.0 10.5 3.5 49 4.8 NE 11 13 6 7 1019.7 1019.7 0.0
01/08:30am 12.3 8.4 3.5 55 3.9 ENE 13 17 7 9 1019.6 1019.6 0.0
01/08:00am 10.2 7.1 3.5 63 2.9 E 9 11 5 6 1019.1 1019.2 0.0
01/07:30am 6.7 4.1 3.0 77 1.6 ESE 6 7 3 4 1018.8 1018.9 0.0
01/07:00am 2.4 -1.2 0.5 87 0.7 ESE 9 11 5 6 1018.3 1018.3 0.0
01/06:30am 0.9 -2.5 -0.7 89 0.6 SE 7 9 4 5 1018.1 1018.1 0.0
01/06:00am 0.9 -2.4 -1.0 87 0.7 SE 6 7 3 4 1018.1 1018.1 0.0
01/05:30am 1.1 -2.2 -1.0 86 0.7 SSE 6 7 3 4 1018.1 1018.1 0.0
01/05:00am 1.0 -1.1 -1.1 86 0.7 CALM 0 0 0 0 1017.9 1017.9 0.0
01/04:30am 1.7 -0.4 -0.7 84 0.9 CALM 0 0 0 0 1017.7 1017.7 0.0
01/04:00am 2.1 0.0 -0.6 82 1.0 CALM 0 0 0 0 1017.8 1017.8 0.0
01/03:30am 2.5 0.4 -0.6 80 1.1 CALM 0 0 0 0 1017.9 1017.9 0.0
01/03:00am 3.0 -0.1 0.1 81 1.1 S 6 6 3 3 1017.9 1017.9 0.0
01/02:30am 3.4 0.2 0.5 81 1.1 S 7 7 4 4 1018.0 1018.0 0.0
01/02:00am 3.2 0.1 0.1 80 1.2 SW 6 7 3 4 1018.3 1018.3 0.0
01/01:30am 3.8 0.7 0.1 77 1.4 WSW 6 7 3 4 1018.6 1018.7 0.0
01/01:00am 4.3 1.2 0.1 74 1.6 WSW 6 6 3 3 1018.8 1018.9 0.0
01/12:30am 5.6 2.3 0.0 67 2.2 WSW 7 9 4 5 1019.0 1019.1 0.0
01/12:00am 7.4 3.9 1.3 65 2.5 SW 9 9 5 5 1018.9 1019.0 0.0
 
Date/Time
EST
Temp
°C
App
Temp
°C
Dew
Point
Rel
Hum
%
Delta-T
°C
Wind Press
QNH
hPa
Press
MSL
hPa
Rain
since 9 am
mm
Dir
 
Spd
km/h
Gust
km/h
Spd
kts
Gust
kts
31/11:30pm 7.7 4.1 0.9 62 2.7 WSW 9 11 5 6 1019.0 1019.1 0.0
31/11:00pm 9.7 6.2 1.4 56 3.4 WSW 9 11 5 6 1019.1 1019.2 0.0
31/10:30pm 9.6 5.7 1.0 55 3.5 WSW 11 13 6 7 1019.3 1019.3 0.0
31/10:00pm 10.9 7.4 1.4 52 4.0 WSW 9 13 5 7 1019.1 1019.2 0.0
31/09:30pm 10.9 7.3 0.9 50 4.2 WSW 9 11 5 6 1019.0 1019.1 0.0
31/09:00pm 11.7 7.8 1.4 49 4.4 WSW 11 13 6 7 1019.0 1019.1 0.0
31/08:30pm 11.0 7.5 1.5 52 4.0 SW 9 13 5 7 1018.9 1019.0 0.0
31/08:00pm 11.5 8.5 2.0 52 4.1 WSW 7 9 4 5 1018.7 1018.8 0.0
31/07:30pm 12.1 8.5 0.8 46 4.8 WSW 9 11 5 6 1018.4 1018.4 0.0
31/07:00pm 14.4 10.9 1.0 40 5.8 W 9 13 5 7 1018.1 1018.1 0.0
31/06:30pm 15.2 11.5 0.2 36 6.4 W 9 13 5 7 1018.0 1018.0 0.0
31/06:00pm 16.6 12.6 0.3 33 7.1 WSW 11 15 6 8 1017.8 1017.8 0.0
31/05:30pm 18.1 14.0 -0.2 29 8.0 WSW 11 17 6 9 1017.6 1017.6 0.0
31/05:00pm 18.8 14.6 -0.6 27 8.4 SW 11 17 6 9 1017.4 1017.4 0.0
31/04:30pm 19.0 13.7 -0.9 26 8.6 WSW 17 28 9 15 1017.3 1017.3 0.0
31/04:00pm 19.4 14.1 -0.6 26 8.7 SW 17 26 9 14 1017.3 1017.3 0.0
31/03:30pm 19.0 14.6 0.6 29 8.2 SW 13 20 7 11 1017.4 1017.4 0.0
31/03:00pm 19.3 14.5 -0.1 27 8.5 WSW 15 24 8 13 1017.6 1017.6 0.0
31/02:30pm 18.6 13.4 0.2 29 8.1 SSW 17 30 9 16 1017.9 1017.9 0.0
31/02:00pm 18.8 14.1 0.9 30 8.0 SW 15 24 8 13 1018.3 1018.3 0.0
31/01:30pm 18.4 13.0 1.4 32 7.7 SSW 19 28 10 15 1018.6 1018.7 0.0
31/01:00pm 17.7 12.1 1.2 33 7.3 SW 20 32 11 17 1019.1 1019.2 0.0
31/12:30pm 17.3 12.4 2.1 36 6.9 SW 17 26 9 14 1019.6 1019.6 0.0
31/12:00pm 16.4 11.7 3.1 41 6.1 SW 17 24 9 13 1020.0 1020.0 0.0
31/11:30am 16.1 11.7 2.9 41 6.0 SW 15 24 8 13 1020.7 1020.7 0.0
31/11:00am 15.7 11.2 4.1 46 5.4 SSW 17 24 9 13 1021.1 1021.1 0.0
31/10:30am 14.8 9.8 3.6 47 5.1 SSW 19 26 10 14 1021.3 1021.3 0.0
31/10:00am 13.6 9.4 3.7 51 4.5 SSW 15 20 8 11 1021.6 1021.6 0.0
31/09:30am 12.8 9.0 4.0 55 4.0 SW 13 15 7 8 1021.4 1021.4 0.0
31/09:00am 11.7 9.1 4.4 61 3.3 SSW 7 9 4 5 1021.2 1021.2 0.0
31/08:30am 10.1 7.6 4.5 68 2.5 SSW 7 9 4 5 1021.2 1021.2 0.0
31/08:00am 7.9 6.6 4.1 77 1.7 CALM 0 0 0 0 1021.1 1021.1 0.0
31/07:30am 4.7 3.1 2.7 87 0.8 CALM 0 0 0 0 1021.0 1021.0 0.0
31/07:00am 1.5 -1.6 0.2 91 0.5 W 6 6 3 3 1020.9 1020.9 0.0
31/06:30am 0.9 -2.6 -1.0 87 0.7 W 7 7 4 4 1020.7 1020.7 0.0
31/06:00am 1.7 -1.9 0.5 92 0.4 SW 9 9 5 5 1020.5 1020.5 0.0
31/05:30am 1.5 -1.8 0.2 91 0.5 W 7 9 4 5 1020.4 1020.4 0.0
31/05:00am 1.5 -1.0 -0.7 85 0.8 WSW 2 6 1 3 1020.2 1020.2 0.0
31/04:30am 2.5 -0.6 0.2 85 0.9 SW 6 6 3 3 1020.0 1020.0 0.0
31/04:00am 3.1 0.7 0.0 80 1.2 SSW 2 6 1 3 1020.1 1020.1 0.0
31/03:30am 5.1 2.0 1.6 78 1.4 S 7 9 4 5 1020.2 1020.2 0.0
31/03:00am 6.7 3.5 2.8 76 1.6 S 9 11 5 6 1020.4 1020.4 0.0
31/02:30am 7.1 3.5 3.2 76 1.7 S 11 13 6 7 1020.6 1020.6 0.0
31/02:00am 6.9 3.3 2.8 75 1.7 SSW 11 13 6 7 1021.0 1021.0 0.0
31/01:30am 7.5 4.2 2.4 70 2.1 SW 9 11 5 6 1021.2 1021.2 0.0
31/01:00am 9.0 5.1 3.2 67 2.5 SSW 13 19 7 10 1021.4 1021.4 0.0
31/12:30am 9.6 5.3 3.4 65 2.7 S 15 20 8 11 1021.2 1021.2 0.0
31/12:00am 9.8 5.9 3.3 64 2.8 S 13 19 7 10 1021.2 1021.2 0.0
 
Date/Time
EST
Temp
°C
App
Temp
°C
Dew
Point
Rel
Hum
%
Delta-T
°C
Wind Press
QNH
hPa
Press
MSL
hPa
Rain
since 9 am
mm
Dir
 
Spd
km/h
Gust
km/h
Spd
kts
Gust
kts
30/11:30pm 10.7 6.0 3.3 60 3.2 SSW 17 20 9 11 1021.1 1021.1 0.0
30/11:00pm 10.8 6.6 3.8 62 3.1 SSW 15 22 8 12 1021.3 1021.3 0.0
30/10:30pm 7.6 3.8 1.7 66 2.4 SSW 11 11 6 6 1021.4 1021.4 0.0
30/10:00pm 7.8 4.4 1.9 66 2.4 SW 9 11 5 6 1021.5 1021.5 0.0
30/09:30pm 7.8 4.3 1.4 64 2.6 SW 9 11 5 6 1021.5 1021.5 0.0
30/09:00pm 8.1 5.0 1.3 62 2.8 WSW 7 11 4 6 1021.5 1021.5 0.0
30/08:30pm 8.0 5.1 1.4 63 2.7 WSW 6 9 3 5 1021.5 1021.5 0.0
30/08:00pm 9.2 6.1 1.4 58 3.2 W 7 9 4 5 1021.2 1021.2 0.0
30/07:30pm 10.0 6.9 1.4 55 3.6 SW 7 9 4 5 1020.9 1020.9 0.0
30/07:00pm 11.9 8.9 1.0 47 4.6 SW 6 7 3 4 1020.5 1020.5 0.0
30/06:30pm 12.7 9.6 1.1 45 4.9 WSW 7 9 4 5 1020.2 1020.2 0.0
30/06:00pm 14.2 11.0 0.5 39 5.8 SSW 7 9 4 5 1019.9 1019.9 0.0
30/05:30pm 16.0 11.5 -0.2 33 6.9 SW 13 20 7 11 1019.8 1019.8 0.0
30/05:00pm 16.6 11.7 -0.6 31 7.3 SW 15 26 8 14 1019.6 1019.6 0.0
30/04:30pm 17.0 11.7 -0.7 30 7.5 SSW 17 26 9 14 1019.6 1019.6 0.0
30/04:00pm 17.0 11.7 -0.7 30 7.5 SW 17 28 9 15 1019.8 1019.8 0.0
30/03:30pm 17.0 11.8 -0.2 31 7.4 SW 17 26 9 14 1020.0 1020.0 0.0
30/03:00pm 17.4 12.3 0.6 32 7.4 S 17 24 9 13 1020.2 1020.2 0.0
30/02:30pm 17.1 12.3 -0.1 31 7.4 SSW 15 26 8 14 1020.6 1020.6 0.0
30/02:00pm 15.8 10.8 -1.3 31 7.1 SW 15 24 8 13 1020.8 1020.8 0.0
30/01:30pm 15.9 11.3 -1.2 31 7.1 SW 13 37 7 20 1021.3 1021.3 0.0
30/01:00pm 15.6 10.5 0.6 36 6.5 SW 17 26 9 14 1021.7 1021.7 0.0
30/12:30pm 14.9 9.7 0.4 37 6.2 WSW 17 28 9 15 1022.2 1022.2 0.0

Other Formats:

Comma delimited format used in spreadsheet applications
http://www.bom.gov.au/fwo/IDN60801/IDN60801.94703.axf

JavaScript Object Notation format (JSON) in row-major order
http://www.bom.gov.au/fwo/IDN60801/IDN60801.94703.json